Sorensen's Resport, Hope Valley, California Weather observations

Data are for 15 minute period ending at time listed.
 Day   Time   Solar   Ave.   Ave.  Ave.  Vector  Max.   Baro.   Total    
  of    of     Rad.   Air    Rel.  Wind   Wind   Wind  Press.  Precip.   
Year   Day            Temp.  Hum.  Speed  Dir.   Gust                    
2019   (PST)  Kw/m2    F      %     mph   deg.    mph    mb.     in.     
-------------------------------------------------------------------------
 168   12:00   100.00   70.5    35    5.6    75    15.1   99999.0   28.51 
 168   12:15   100.00   71.5    35    5.2    87    13.9   99999.0   28.51 
 168   12:30   100.00   72.1    33    4.8    85    13.2   99999.0   28.50 
 168   12:45   100.00   72.0    32    4.8    95    11.4   99999.0   28.50 
 168   13:00   100.00   69.7    33    3.3    81     9.6   99999.0   28.51 
 168   13:15   100.00   70.6    32    4.1    83    14.2   99999.0   28.50 
 168   13:30   100.00   72.4    31    5.1    85    11.2   99999.0   28.50 
 168   13:45   100.00   71.8    30    4.3   120    11.9   99999.0   28.51 
 168   14:00   100.00   72.5    28    6.7    96    15.2   99999.0   28.50 
 168   14:15   100.00   73.3    29    4.7    82     9.9   99999.0   28.50 
 168   14:30   100.00   72.5    28    4.9    72    11.8   99999.0   28.51 
 168   14:45   100.00   72.4    27    8.1   108    17.4   99999.0   28.49 
 168   15:00   100.00   72.1    27    6.7   104    16.6   99999.0   28.50 
 168   15:15   100.00   72.7    27    6.0   118    12.6   99999.0   28.50 
 168   15:30   100.00   73.6    26    5.3    96    14.1   99999.0   28.49 
 168   15:45   100.00   73.1    26    3.5    99     8.7   99999.0   28.49 
 168   16:00   100.00   72.5    26    3.6    70    15.3   99999.0   28.50 
 168   16:15   100.00   72.9    25    3.4   101     9.7   99999.0   28.49 
 168   16:30   100.00   71.7    28    6.5    82    16.1   99999.0   28.50 
 168   16:45   100.00   69.5    32    3.5    96    10.2   99999.0   28.49 
 168   17:00   100.00   70.1    31    3.1    96     8.1   99999.0   28.49 
 168   17:15   100.00   69.8    32    2.7    94     7.2   99999.0   28.48 
 168   17:30   100.00   71.6    31    2.0    62     8.8   99999.0   28.49 
 168   17:45   100.00   70.7    32    4.7    81    10.5   99999.0   28.49 
 168   18:00   100.00   70.9    34    3.0   284     8.9   99999.0   28.49 
 168   18:15   100.00   68.9    41    5.3   260    12.3   99999.0   28.50 
 168   18:30   100.00   67.7    43    3.6   221     9.3   99999.0   28.50 
 168   18:45   100.00   65.2    45    3.3   162     9.7   99999.0   28.49 
 168   19:00   100.00   62.4    53    1.8   285     6.1   99999.0   28.50 
 168   19:15   100.00   62.3    52    4.4   309     9.9   99999.0   28.50 
 168   19:30   100.00   62.0    51    3.5   319     9.1   99999.0   28.50 
 168   19:45   100.00   61.2    54    2.0   264     4.6   99999.0   28.48 
 168   20:00   100.00   61.2    53    2.9   236     6.2   99999.0   28.51 
 168   20:15   100.00   57.7    70    2.7   278     7.7   99999.0   28.49 
 168   20:30   100.00   55.2    81    1.6   248     4.2   99999.0   28.47 
 168   20:45   100.00   53.9    87    2.1   248     3.9   99999.0   28.49 
 168   21:00   100.00   53.4    85    2.3   236     3.9   99999.0   28.48 
 168   21:15   100.00   52.1    86    2.4   238     4.2   99999.0   28.48 
 168   21:30   100.00   51.9    85    3.6   244     6.9   99999.0   28.51 
 168   21:45   100.00   51.3    85    3.3   258     5.9   99999.0   28.50 
 168   22:00   100.00   50.0    89    2.6   276     4.7   99999.0   28.49 
 168   22:15   100.00   50.3    87    3.2   279     5.8   99999.0   28.51 
 168   22:30   100.00   50.6    84    4.5   243     7.2   99999.0   28.51 
 168   22:45   100.00   50.0    86    3.4   234     5.7   99999.0   28.51 
 168   23:00   100.00   48.9    89    2.9   279     5.0   99999.0   28.50 
 168   23:15   100.00   48.2    89    3.1   252     5.2   99999.0   28.49 
 168   23:30   100.00   47.7    88    3.7   242     5.8   99999.0   28.49 
 168   23:45   100.00   47.7    88    4.0   247     7.1   99999.0   28.51 
 169    0:00   100.00   47.6    88    4.7   239     9.1   99999.0   28.51 
 169    0:15   100.00   47.0    89    3.1   263     5.9   99999.0   28.51 
 169    0:30   100.00   46.6    89    4.9   250     7.7   99999.0   28.51 
 169    0:45   100.00   46.6    88    4.8   236     8.7   99999.0   28.51 
 169    1:00   100.00   45.7    90    4.5   239     7.1   99999.0   28.51 
 169    1:15   100.00   44.8    91    4.0   250     6.6   99999.0   28.51 
 169    1:30   100.00   44.2    92    4.4   252     7.7   99999.0   28.51 
 169    1:45   100.00   43.8    92    4.6   238     7.2   99999.0   28.51 
 169    2:00   100.00   43.3    93    3.1   264     6.0   99999.0   28.51 
 169    2:15   100.00   42.3    94    3.5   248     7.2   99999.0   28.51 
 169    2:30   100.00   42.5    93    4.9   237     8.6   99999.0   28.51 
 169    2:45   100.00   42.4    93    3.2   259     8.3   99999.0   28.51 
 169    3:00   100.00   41.9    93    3.2   258     7.2   99999.0   28.51 
 169    3:15   100.00   41.8    93    4.1   241     7.8   99999.0   28.52 
 169    3:30   100.00   41.5    93    3.0   267     6.8   99999.0   28.51 
 169    3:45   100.00   41.3    93    3.8   263     7.7   99999.0   28.51 
 169    4:00   100.00   41.3    93    4.0   264     8.2   99999.0   28.52 
 169    4:15   100.00   41.0    93    3.3   261     9.5   99999.0   28.51 
 169    4:30   100.00   40.4    94    2.8   285     6.9   99999.0   28.52 
 169    4:45   100.00   40.7    93    3.7   269     8.3   99999.0   28.51 
 169    5:00   100.00   40.6    93    4.5   262     8.3   99999.0   28.51 
 169    5:15   100.00   40.4    93    4.2   264     7.9   99999.0   28.51 
 169    5:30   100.00   40.7    93    5.0   251    10.4   99999.0   28.51 
 169    5:45   100.00   42.8    89    4.1   253     8.0   99999.0   28.51 
 169    6:00   100.00   44.8    85    4.1   251     7.6   99999.0   28.51 
 169    6:15   100.00   46.6    82    4.1   249     6.6   99999.0   28.51 
 169    6:30   100.00   49.5    77    2.7   268     5.6   99999.0   28.52 
 169    6:45   100.00   51.5    72    4.3   246     8.2   99999.0   28.51 
 169    7:00   100.00   53.4    68    3.9   267     6.9   99999.0   28.51 
 169    7:15   100.00   56.0    62    3.5   256     6.5   99999.0   28.52 
 169    7:30   100.00   58.4    57    3.5   264     6.6   99999.0   28.53 
 169    7:45   100.00   60.8    52    2.7   275     5.1   99999.0   28.53 
 169    8:00   100.00   62.8    48    2.3   270     5.7   99999.0   28.52 
 169    8:15   100.00   64.7    44    3.0    78     7.5   99999.0   28.52 
 169    8:30   100.00   66.2    40    4.0    65     8.3   99999.0   28.51 
 169    8:45   100.00   66.6    38    4.5    61     8.8   99999.0   28.52 
 169    9:00   100.00   67.2    36    4.9    72    10.7   99999.0   28.51 
 169    9:15   100.00   67.1    35    6.2    79    11.0   99999.0   28.51 
 169    9:30   100.00   67.9    34    5.5    76    10.5   99999.0   28.51 
 169    9:45   100.00   68.5    34    5.5    79    13.0   99999.0   28.51 
 169   10:00   100.00   68.7    34    5.8    84    11.4   99999.0   28.51 
 169   10:15   100.00   69.6    34    4.9    76     9.7   99999.0   28.51 
 169   10:30   100.00   70.4    33    5.5    85     9.7   99999.0   28.51 
 169   10:45   100.00   70.8    32    4.8    77    10.2   99999.0   28.51 
 169   11:00   100.00   71.8    32    4.4    65     9.5   99999.0   28.51 
 169   11:15   100.00   72.9    28    3.1   160     9.4   99999.0   28.51 
 169   11:30   100.00   73.3    28    2.2   187     5.9   99999.0   28.51 
 169   11:45   100.00   73.0    30    3.9    63    11.4   99999.0   28.51 

Return to Sorensen's Resort graphs page.


Western Regional Climate Center,wrcc@dri.edu